Terminal Aerodrome Forecast
Issued by NWS

Home | Current Version | Previous Version | Text Only | Print | Product List | Glossary On
Versions: 1 2 3 4 5 6 7 8 9 10 11 12 13 14 15 16 17 18 19 20 21 22 23 24
000
FTUS45 KTWC 272300
TAFOLS
TAF
KOLS 272331Z 2800/2824 10009KT P6SM SKC
     FM280200 07006KT P6SM SKC
     FM280500 VRB03KT P6SM FEW250
     FM281900 24006KT P6SM SCT250=

USA.gov is the U.S. government's official web portal to all federal, state and local government web resources and services.